sensor_id;sensor_type;location;lat;lon;timestamp;pressure;altitude;pressure_sealevel;temperature;humidity
46009;BME280;39597;51.438;7.006;2022-09-09T00:00:47;99477.59;;;13.51;100.00
46009;BME280;39597;51.438;7.006;2022-09-09T00:03:18;99468.16;;;13.75;100.00
46009;BME280;39597;51.438;7.006;2022-09-09T00:06:02;99464.53;;;13.97;100.00
46009;BME280;39597;51.438;7.006;2022-09-09T00:11:26;99473.94;;;14.00;99.82
46009;BME280;39597;51.438;7.006;2022-09-09T00:13:55;99465.78;;;14.03;99.04
46009;BME280;39597;51.438;7.006;2022-09-09T00:16:28;99469.41;;;13.81;100.00
46009;BME280;39597;51.438;7.006;2022-09-09T00:19:14;99467.78;;;13.76;100.00
46009;BME280;39597;51.438;7.006;2022-09-09T00:27:21;99471.03;;;13.55;100.00
46009;BME280;39597;51.438;7.006;2022-09-09T00:29:58;99466.72;;;13.54;100.00
46009;BME280;39597;51.438;7.006;2022-09-09T00:32:28;99474.88;;;13.51;100.00
46009;BME280;39597;51.438;7.006;2022-09-09T00:35:10;99484.59;;;13.48;100.00
46009;BME280;39597;51.438;7.006;2022-09-09T00:37:42;99474.25;;;13.61;100.00
46009;BME280;39597;51.438;7.006;2022-09-09T00:40:35;99472.22;;;13.58;100.00
46009;BME280;39597;51.438;7.006;2022-09-09T00:43:24;99458.91;;;13.57;100.00
46009;BME280;39597;51.438;7.006;2022-09-09T00:46:14;99467.44;;;13.51;100.00
46009;BME280;39597;51.438;7.006;2022-09-09T00:57:26;99469.84;;;13.57;100.00
46009;BME280;39597;51.438;7.006;2022-09-09T01:00:30;99472.38;;;13.69;100.00
46009;BME280;39597;51.438;7.006;2022-09-09T01:03:07;99464.91;;;13.66;100.00
46009;BME280;39597;51.438;7.006;2022-09-09T01:10:50;99472.53;;;13.79;100.00
46009;BME280;39597;51.438;7.006;2022-09-09T01:13:24;99472.16;;;13.81;100.00
46009;BME280;39597;51.438;7.006;2022-09-09T01:15:50;99467.88;;;13.83;100.00
46009;BME280;39597;51.438;7.006;2022-09-09T01:18:20;99459.72;;;13.87;100.00
46009;BME280;39597;51.438;7.006;2022-09-09T01:21:52;99462.44;;;13.87;100.00
46009;BME280;39597;51.438;7.006;2022-09-09T01:26:26;99457.72;;;13.84;100.00
46009;BME280;39597;51.438;7.006;2022-09-09T01:28:53;99446.78;;;13.84;100.00
46009;BME280;39597;51.438;7.006;2022-09-09T01:34:12;99454.22;;;13.87;100.00
46009;BME280;39597;51.438;7.006;2022-09-09T01:36:45;99461.72;;;13.94;100.00
46009;BME280;39597;51.438;7.006;2022-09-09T01:39:13;99459.44;;;13.96;99.90
46009;BME280;39597;51.438;7.006;2022-09-09T01:41:39;99455.56;;;14.00;99.94
46009;BME280;39597;51.438;7.006;2022-09-09T01:44:04;99460.72;;;14.05;99.85
46009;BME280;39597;51.438;7.006;2022-09-09T01:46:31;99458.00;;;14.09;99.51
46009;BME280;39597;51.438;7.006;2022-09-09T01:48:57;99452.16;;;14.10;99.72
46009;BME280;39597;51.438;7.006;2022-09-09T01:51:24;99450.56;;;14.09;99.59
46009;BME280;39597;51.438;7.006;2022-09-09T01:53:49;99447.84;;;14.09;99.84
46009;BME280;39597;51.438;7.006;2022-09-09T01:56:35;99441.16;;;14.07;99.94
46009;BME280;39597;51.438;7.006;2022-09-09T02:02:18;99445.53;;;14.11;99.44
46009;BME280;39597;51.438;7.006;2022-09-09T02:04:54;99447.97;;;14.20;98.95
46009;BME280;39597;51.438;7.006;2022-09-09T02:07:35;99449.06;;;14.12;98.84
46009;BME280;39597;51.438;7.006;2022-09-09T02:11:06;99451.03;;;14.11;98.28
46009;BME280;39597;51.438;7.006;2022-09-09T02:13:01;99453.31;;;14.09;97.79
46009;BME280;39597;51.438;7.006;2022-09-09T02:15:53;99449.75;;;14.05;97.63
46009;BME280;39597;51.438;7.006;2022-09-09T02:18:32;99454.16;;;14.13;97.43
46009;BME280;39597;51.438;7.006;2022-09-09T02:21:01;99444.69;;;14.07;97.58
46009;BME280;39597;51.438;7.006;2022-09-09T02:23:28;99447.94;;;14.17;96.81
46009;BME280;39597;51.438;7.006;2022-09-09T02:25:53;99452.97;;;14.11;97.57
46009;BME280;39597;51.438;7.006;2022-09-09T02:28:21;99451.47;;;14.17;97.85
46009;BME280;39597;51.438;7.006;2022-09-09T02:30:50;99449.41;;;14.10;98.69
46009;BME280;39597;51.438;7.006;2022-09-09T02:33:26;99455.75;;;14.14;98.78
46009;BME280;39597;51.438;7.006;2022-09-09T02:35:53;99449.50;;;14.18;98.50
46009;BME280;39597;51.438;7.006;2022-09-09T02:38:24;99443.31;;;14.24;98.93
46009;BME280;39597;51.438;7.006;2022-09-09T02:40:51;99453.94;;;14.29;98.34
46009;BME280;39597;51.438;7.006;2022-09-09T02:43:17;99457.06;;;14.28;98.51
46009;BME280;39597;51.438;7.006;2022-09-09T02:48:38;99453.63;;;14.38;98.41
46009;BME280;39597;51.438;7.006;2022-09-09T02:51:16;99453.00;;;14.52;98.20
46009;BME280;39597;51.438;7.006;2022-09-09T02:56:40;99444.81;;;14.55;97.68
46009;BME280;39597;51.438;7.006;2022-09-09T02:59:06;99453.44;;;14.54;98.04
46009;BME280;39597;51.438;7.006;2022-09-09T03:01:32;99443.63;;;14.53;98.10
46009;BME280;39597;51.438;7.006;2022-09-09T03:03:57;99443.59;;;14.49;98.20
46009;BME280;39597;51.438;7.006;2022-09-09T03:06:23;99440.50;;;14.51;98.28
46009;BME280;39597;51.438;7.006;2022-09-09T03:08:48;99442.09;;;14.55;97.00
46009;BME280;39597;51.438;7.006;2022-09-09T03:11:15;99436.22;;;14.57;97.20
46009;BME280;39597;51.438;7.006;2022-09-09T03:13:40;99438.94;;;14.53;97.14
46009;BME280;39597;51.438;7.006;2022-09-09T03:16:06;99441.28;;;14.51;97.41
46009;BME280;39597;51.438;7.006;2022-09-09T03:18:31;99431.88;;;14.52;97.36
46009;BME280;39597;51.438;7.006;2022-09-09T03:20:57;99436.97;;;14.50;97.28
46009;BME280;39597;51.438;7.006;2022-09-09T03:23:23;99441.69;;;14.53;97.09
46009;BME280;39597;51.438;7.006;2022-09-09T03:25:49;99427.97;;;14.53;97.17
46009;BME280;39597;51.438;7.006;2022-09-09T03:28:15;99431.47;;;14.50;96.77
46009;BME280;39597;51.438;7.006;2022-09-09T03:30:40;99434.22;;;14.50;97.28
46009;BME280;39597;51.438;7.006;2022-09-09T03:33:06;99432.66;;;14.49;96.42
46009;BME280;39597;51.438;7.006;2022-09-09T03:35:31;99433.81;;;14.48;96.62
46009;BME280;39597;51.438;7.006;2022-09-09T03:37:57;99428.72;;;14.47;96.41
46009;BME280;39597;51.438;7.006;2022-09-09T03:40:22;99427.56;;;14.51;95.78
46009;BME280;39597;51.438;7.006;2022-09-09T03:42:47;99430.66;;;14.46;96.21
46009;BME280;39597;51.438;7.006;2022-09-09T03:45:13;99427.50;;;14.44;95.92
46009;BME280;39597;51.438;7.006;2022-09-09T03:47:39;99436.53;;;14.44;96.17
46009;BME280;39597;51.438;7.006;2022-09-09T03:50:05;99432.97;;;14.44;96.35
46009;BME280;39597;51.438;7.006;2022-09-09T03:52:36;99435.78;;;14.48;95.97
46009;BME280;39597;51.438;7.006;2022-09-09T03:55:03;99424.75;;;14.44;96.28
46009;BME280;39597;51.438;7.006;2022-09-09T03:57:31;99428.22;;;14.41;96.35
46009;BME280;39597;51.438;7.006;2022-09-09T04:00:00;99434.56;;;14.45;95.96
46009;BME280;39597;51.438;7.006;2022-09-09T04:02:27;99430.22;;;14.44;96.16
46009;BME280;39597;51.438;7.006;2022-09-09T04:04:52;99432.63;;;14.46;95.65
46009;BME280;39597;51.438;7.006;2022-09-09T04:07:18;99433.41;;;14.46;95.98
46009;BME280;39597;51.438;7.006;2022-09-09T04:09:43;99431.47;;;14.47;95.88
46009;BME280;39597;51.438;7.006;2022-09-09T04:12:08;99439.66;;;14.47;95.89
46009;BME280;39597;51.438;7.006;2022-09-09T04:14:40;99425.59;;;14.48;95.69
46009;BME280;39597;51.438;7.006;2022-09-09T04:17:05;99421.22;;;14.43;95.78
46009;BME280;39597;51.438;7.006;2022-09-09T04:19:32;99428.31;;;14.44;95.69
46009;BME280;39597;51.438;7.006;2022-09-09T04:21:57;99425.88;;;14.43;95.95
46009;BME280;39597;51.438;7.006;2022-09-09T04:24:22;99430.97;;;14.41;95.66
46009;BME280;39597;51.438;7.006;2022-09-09T04:26:48;99428.19;;;14.37;96.01
46009;BME280;39597;51.438;7.006;2022-09-09T04:29:13;99428.59;;;14.39;96.10
46009;BME280;39597;51.438;7.006;2022-09-09T04:31:38;99431.72;;;14.38;95.79
46009;BME280;39597;51.438;7.006;2022-09-09T04:34:08;99436.78;;;14.36;95.97
46009;BME280;39597;51.438;7.006;2022-09-09T04:36:33;99437.53;;;14.33;96.49
46009;BME280;39597;51.438;7.006;2022-09-09T04:38:58;99445.00;;;14.36;96.06
46009;BME280;39597;51.438;7.006;2022-09-09T04:41:23;99438.75;;;14.35;95.95
46009;BME280;39597;51.438;7.006;2022-09-09T04:43:49;99436.06;;;14.42;95.43
46009;BME280;39597;51.438;7.006;2022-09-09T04:46:15;99436.94;;;14.47;95.38
46009;BME280;39597;51.438;7.006;2022-09-09T04:48:42;99438.53;;;14.51;95.13
46009;BME280;39597;51.438;7.006;2022-09-09T04:51:11;99438.16;;;14.53;94.69
46009;BME280;39597;51.438;7.006;2022-09-09T04:53:37;99436.22;;;14.57;94.90
46009;BME280;39597;51.438;7.006;2022-09-09T04:56:11;99435.16;;;14.68;94.25
46009;BME280;39597;51.438;7.006;2022-09-09T04:58:38;99426.91;;;14.61;94.82
46009;BME280;39597;51.438;7.006;2022-09-09T05:01:08;99429.59;;;14.58;94.87
46009;BME280;39597;51.438;7.006;2022-09-09T05:03:34;99436.31;;;14.64;94.46
46009;BME280;39597;51.438;7.006;2022-09-09T05:06:11;99439.00;;;14.60;94.90
46009;BME280;39597;51.438;7.006;2022-09-09T05:08:40;99434.28;;;14.61;94.90
46009;BME280;39597;51.438;7.006;2022-09-09T05:11:27;99433.56;;;14.64;95.02
46009;BME280;39597;51.438;7.006;2022-09-09T05:13:53;99435.16;;;14.68;94.39
46009;BME280;39597;51.438;7.006;2022-09-09T05:16:20;99442.22;;;14.69;94.51
46009;BME280;39597;51.438;7.006;2022-09-09T05:18:46;99431.25;;;14.69;94.42
46009;BME280;39597;51.438;7.006;2022-09-09T05:21:12;99431.78;;;14.86;94.41
46009;BME280;39597;51.438;7.006;2022-09-09T05:23:38;99431.38;;;14.84;93.43
46009;BME280;39597;51.438;7.006;2022-09-09T05:26:04;99441.56;;;14.87;93.35
46009;BME280;39597;51.438;7.006;2022-09-09T05:28:29;99430.22;;;14.85;93.08
46009;BME280;39597;51.438;7.006;2022-09-09T05:30:56;99430.63;;;14.87;92.84
46009;BME280;39597;51.438;7.006;2022-09-09T05:33:24;99414.56;;;14.89;93.11
46009;BME280;39597;51.438;7.006;2022-09-09T05:36:06;99439.25;;;14.92;92.96
46009;BME280;39597;51.438;7.006;2022-09-09T05:38:33;99427.59;;;14.99;92.58
46009;BME280;39597;51.438;7.006;2022-09-09T05:40:59;99425.66;;;15.07;92.40
46009;BME280;39597;51.438;7.006;2022-09-09T05:43:25;99429.97;;;15.04;92.12
46009;BME280;39597;51.438;7.006;2022-09-09T05:46:05;99422.13;;;15.06;92.01
46009;BME280;39597;51.438;7.006;2022-09-09T05:48:32;99415.88;;;15.09;92.02
46009;BME280;39597;51.438;7.006;2022-09-09T05:50:59;99420.19;;;15.10;92.07
46009;BME280;39597;51.438;7.006;2022-09-09T05:53:26;99421.78;;;15.11;91.82
46009;BME280;39597;51.438;7.006;2022-09-09T05:56:03;99422.19;;;15.13;92.28
46009;BME280;39597;51.438;7.006;2022-09-09T05:58:33;99424.50;;;15.11;92.10
46009;BME280;39597;51.438;7.006;2022-09-09T06:03:28;99427.69;;;15.13;91.85
46009;BME280;39597;51.438;7.006;2022-09-09T06:06:00;99421.47;;;15.23;92.17
46009;BME280;39597;51.438;7.006;2022-09-09T06:08:27;99429.72;;;15.27;91.31
46009;BME280;39597;51.438;7.006;2022-09-09T06:10:53;99434.78;;;15.21;91.28
46009;BME280;39597;51.438;7.006;2022-09-09T06:13:18;99443.00;;;15.21;91.61
46009;BME280;39597;51.438;7.006;2022-09-09T06:15:50;99436.38;;;15.26;91.77
46009;BME280;39597;51.438;7.006;2022-09-09T06:18:16;99434.88;;;15.35;90.69
46009;BME280;39597;51.438;7.006;2022-09-09T06:20:53;99429.72;;;15.27;91.25
46009;BME280;39597;51.438;7.006;2022-09-09T06:23:19;99434.47;;;15.30;91.52
46009;BME280;39597;51.438;7.006;2022-09-09T06:25:45;99434.88;;;15.35;90.57
46009;BME280;39597;51.438;7.006;2022-09-09T06:28:11;99433.38;;;15.49;90.46
46009;BME280;39597;51.438;7.006;2022-09-09T06:30:39;99435.28;;;15.41;90.86
46009;BME280;39597;51.438;7.006;2022-09-09T06:33:05;99438.00;;;15.38;90.56
46009;BME280;39597;51.438;7.006;2022-09-09T06:35:30;99438.47;;;15.50;90.24
46009;BME280;39597;51.438;7.006;2022-09-09T06:37:56;99437.03;;;15.63;89.54
46009;BME280;39597;51.438;7.006;2022-09-09T06:40:25;99435.47;;;15.70;88.79
46009;BME280;39597;51.438;7.006;2022-09-09T06:42:50;99439.72;;;15.60;89.67
46009;BME280;39597;51.438;7.006;2022-09-09T06:45:16;99447.22;;;15.70;89.02
46009;BME280;39597;51.438;7.006;2022-09-09T06:47:42;99446.84;;;15.75;88.64
46009;BME280;39597;51.438;7.006;2022-09-09T06:50:09;99444.53;;;15.81;88.07
46009;BME280;39597;51.438;7.006;2022-09-09T06:52:36;99438.63;;;15.79;88.21
46009;BME280;39597;51.438;7.006;2022-09-09T06:55:02;99444.50;;;15.70;88.29
46009;BME280;39597;51.438;7.006;2022-09-09T06:57:28;99447.22;;;15.70;88.10
46009;BME280;39597;51.438;7.006;2022-09-09T06:59:54;99435.88;;;15.75;88.11
46009;BME280;39597;51.438;7.006;2022-09-09T07:02:19;99445.69;;;15.76;88.47
46009;BME280;39597;51.438;7.006;2022-09-09T07:04:46;99446.13;;;15.92;87.44
46009;BME280;39597;51.438;7.006;2022-09-09T07:07:12;99445.81;;;16.05;87.14
46009;BME280;39597;51.438;7.006;2022-09-09T07:09:40;99452.09;;;16.12;86.97
46009;BME280;39597;51.438;7.006;2022-09-09T07:12:05;99441.09;;;16.02;86.41
46009;BME280;39597;51.438;7.006;2022-09-09T07:14:31;99450.09;;;16.02;86.58
46009;BME280;39597;51.438;7.006;2022-09-09T07:16:59;99463.84;;;16.06;86.34
46009;BME280;39597;51.438;7.006;2022-09-09T07:19:25;99461.88;;;15.99;86.63
46009;BME280;39597;51.438;7.006;2022-09-09T07:21:54;99455.66;;;16.16;85.85
46009;BME280;39597;51.438;7.006;2022-09-09T07:24:20;99456.44;;;16.24;85.93
46009;BME280;39597;51.438;7.006;2022-09-09T07:26:45;99454.09;;;16.26;85.70
46009;BME280;39597;51.438;7.006;2022-09-09T07:29:11;99460.81;;;16.39;85.26
46009;BME280;39597;51.438;7.006;2022-09-09T07:31:38;99459.28;;;16.63;83.55
46009;BME280;39597;51.438;7.006;2022-09-09T07:34:04;99462.03;;;16.63;83.73
46009;BME280;39597;51.438;7.006;2022-09-09T07:36:35;99467.94;;;16.76;82.98
46009;BME280;39597;51.438;7.006;2022-09-09T07:39:04;99464.44;;;16.82;82.70
46009;BME280;39597;51.438;7.006;2022-09-09T07:41:33;99464.81;;;16.95;82.32
46009;BME280;39597;51.438;7.006;2022-09-09T07:43:59;99456.97;;;16.97;81.00
46009;BME280;39597;51.438;7.006;2022-09-09T07:46:25;99460.09;;;17.10;79.96
46009;BME280;39597;51.438;7.006;2022-09-09T07:48:53;99461.25;;;17.27;79.21
46009;BME280;39597;51.438;7.006;2022-09-09T07:51:21;99469.13;;;17.32;79.39
46009;BME280;39597;51.438;7.006;2022-09-09T07:53:48;99468.69;;;17.55;78.93
46009;BME280;39597;51.438;7.006;2022-09-09T07:56:17;99471.44;;;17.55;79.03
46009;BME280;39597;51.438;7.006;2022-09-09T07:58:46;99477.34;;;17.39;77.97
46009;BME280;39597;51.438;7.006;2022-09-09T08:01:16;99484.84;;;17.28;78.58
46009;BME280;39597;51.438;7.006;2022-09-09T08:03:51;99484.06;;;17.31;78.63
46009;BME280;39597;51.438;7.006;2022-09-09T08:06:18;99476.97;;;17.30;78.76
46009;BME280;39597;51.438;7.006;2022-09-09T08:08:43;99482.88;;;17.25;78.38
46009;BME280;39597;51.438;7.006;2022-09-09T08:11:14;99482.50;;;17.19;78.71
46009;BME280;39597;51.438;7.006;2022-09-09T08:13:41;99485.25;;;17.33;78.95
46009;BME280;39597;51.438;7.006;2022-09-09T08:16:14;99480.13;;;17.35;78.33
46009;BME280;39597;51.438;7.006;2022-09-09T08:18:40;99481.69;;;17.29;78.65
46009;BME280;39597;51.438;7.006;2022-09-09T08:21:15;99484.06;;;17.17;78.93
46009;BME280;39597;51.438;7.006;2022-09-09T08:23:43;99482.09;;;17.21;78.91
46009;BME280;39597;51.438;7.006;2022-09-09T08:26:16;99484.44;;;17.36;78.40
46009;BME280;39597;51.438;7.006;2022-09-09T08:28:42;99489.53;;;17.52;77.67
46009;BME280;39597;51.438;7.006;2022-09-09T08:31:16;99475.75;;;17.56;77.24
46009;BME280;39597;51.438;7.006;2022-09-09T08:33:43;99482.41;;;17.62;76.88
46009;BME280;39597;51.438;7.006;2022-09-09T08:36:14;99493.84;;;17.64;76.50
46009;BME280;39597;51.438;7.006;2022-09-09T08:38:41;99490.69;;;17.58;76.80
46009;BME280;39597;51.438;7.006;2022-09-09T08:44:17;99482.81;;;17.60;75.04
46009;BME280;39597;51.438;7.006;2022-09-09T08:50:03;99481.28;;;17.52;72.85
46009;BME280;39597;51.438;7.006;2022-09-09T08:52:39;99492.69;;;17.51;73.04
46009;BME280;39597;51.438;7.006;2022-09-09T08:58:18;99491.09;;;17.53;72.42
46009;BME280;39597;51.438;7.006;2022-09-09T09:06:12;99477.22;;;17.92;71.10
46009;BME280;39597;51.438;7.006;2022-09-09T09:11:49;99486.22;;;18.11;69.92
46009;BME280;39597;51.438;7.006;2022-09-09T09:14:23;99478.28;;;18.23;68.50
46009;BME280;39597;51.438;7.006;2022-09-09T09:16:56;99492.44;;;18.25;67.85
46009;BME280;39597;51.438;7.006;2022-09-09T09:19:23;99493.19;;;18.29;66.82
46009;BME280;39597;51.438;7.006;2022-09-09T09:22:14;99479.81;;;18.28;65.78
46009;BME280;39597;51.438;7.006;2022-09-09T09:27:33;99492.09;;;18.13;66.19
46009;BME280;39597;51.438;7.006;2022-09-09T09:30:06;99497.59;;;18.13;67.00
46009;BME280;39597;51.438;7.006;2022-09-09T09:32:43;99497.63;;;18.16;66.42
46009;BME280;39597;51.438;7.006;2022-09-09T09:35:12;99490.84;;;18.28;66.75
46009;BME280;39597;51.438;7.006;2022-09-09T09:37:40;99494.78;;;18.30;66.11
46009;BME280;39597;51.438;7.006;2022-09-09T09:40:10;99490.50;;;18.22;65.61
46009;BME280;39597;51.438;7.006;2022-09-09T09:42:37;99492.84;;;18.24;66.16
46009;BME280;39597;51.438;7.006;2022-09-09T09:45:34;99497.94;;;18.25;65.87
46009;BME280;39597;51.438;7.006;2022-09-09T09:48:05;99495.56;;;18.27;65.50
46009;BME280;39597;51.438;7.006;2022-09-09T09:50:32;99503.09;;;18.20;65.46
46009;BME280;39597;51.438;7.006;2022-09-09T09:53:00;99501.88;;;18.28;65.80
46009;BME280;39597;51.438;7.006;2022-09-09T09:55:28;99499.91;;;18.28;65.54
46009;BME280;39597;51.438;7.006;2022-09-09T09:58:13;99497.19;;;18.21;65.00
46009;BME280;39597;51.438;7.006;2022-09-09T10:00:50;99494.91;;;18.06;65.88
46009;BME280;39597;51.438;7.006;2022-09-09T10:03:33;99501.22;;;17.95;65.33
46009;BME280;39597;51.438;7.006;2022-09-09T10:06:03;99503.22;;;17.91;66.04
46009;BME280;39597;51.438;7.006;2022-09-09T10:08:28;99499.66;;;17.91;66.50
46009;BME280;39597;51.438;7.006;2022-09-09T10:16:49;99494.19;;;17.87;65.19
46009;BME280;39597;51.438;7.006;2022-09-09T10:27:01;99495.56;;;18.34;62.48
46009;BME280;39597;51.438;7.006;2022-09-09T10:29:58;99503.81;;;18.38;61.17
46009;BME280;39597;51.438;7.006;2022-09-09T10:35:52;99487.66;;;18.37;61.24
46009;BME280;39597;51.438;7.006;2022-09-09T10:40:59;99478.22;;;18.38;61.01
46009;BME280;39597;51.438;7.006;2022-09-09T10:54:41;99476.50;;;18.58;61.07
46009;BME280;39597;51.438;7.006;2022-09-09T10:59:49;99483.31;;;18.39;61.14
46009;BME280;39597;51.438;7.006;2022-09-09T11:02:30;99469.59;;;18.28;62.04
46009;BME280;39597;51.438;7.006;2022-09-09T11:07:49;99477.53;;;18.19;61.60
46009;BME280;39597;51.438;7.006;2022-09-09T11:10:25;99467.75;;;17.97;63.05
46009;BME280;39597;51.438;7.006;2022-09-09T11:12:57;99474.06;;;17.94;63.10
46009;BME280;39597;51.438;7.006;2022-09-09T11:15:31;99474.09;;;17.97;63.52
46009;BME280;39597;51.438;7.006;2022-09-09T11:18:01;99469.69;;;18.14;63.36
46009;BME280;39597;51.438;7.006;2022-09-09T11:20:29;99475.22;;;18.07;64.21
46009;BME280;39597;51.438;7.006;2022-09-09T11:23:11;99470.44;;;18.18;63.08
46009;BME280;39597;51.438;7.006;2022-09-09T11:25:42;99465.59;;;18.40;63.05
46009;BME280;39597;51.438;7.006;2022-09-09T11:28:55;99471.41;;;18.56;62.53
46009;BME280;39597;51.438;7.006;2022-09-09T11:34:12;99464.53;;;18.86;61.04
46009;BME280;39597;51.438;7.006;2022-09-09T11:36:56;99456.50;;;19.02;60.66
46009;BME280;39597;51.438;7.006;2022-09-09T11:42:06;99462.00;;;19.06;61.15
46009;BME280;39597;51.438;7.006;2022-09-09T11:44:33;99465.94;;;19.05;61.39
46009;BME280;39597;51.438;7.006;2022-09-09T11:46:59;99457.25;;;19.06;61.23
46009;BME280;39597;51.438;7.006;2022-09-09T11:49:41;99462.06;;;18.95;61.59
46009;BME280;39597;51.438;7.006;2022-09-09T11:52:19;99457.06;;;18.79;62.34
46009;BME280;39597;51.438;7.006;2022-09-09T11:54:49;99462.59;;;18.79;63.01
46009;BME280;39597;51.438;7.006;2022-09-09T11:57:34;99474.00;;;18.15;71.84
46009;BME280;39597;51.438;7.006;2022-09-09T12:00:00;99474.59;;;17.42;75.80
46009;BME280;39597;51.438;7.006;2022-09-09T12:02:29;99480.16;;;17.14;76.89
46009;BME280;39597;51.438;7.006;2022-09-09T12:05:08;99477.78;;;17.09;78.24
46009;BME280;39597;51.438;7.006;2022-09-09T12:12:32;99484.44;;;17.47;76.38
46009;BME280;39597;51.438;7.006;2022-09-09T12:14:59;99471.00;;;17.63;76.54
46009;BME280;39597;51.438;7.006;2022-09-09T12:17:28;99477.28;;;17.78;75.53
46009;BME280;39597;51.438;7.006;2022-09-09T12:20:26;99481.22;;;17.77;75.13
46009;BME280;39597;51.438;7.006;2022-09-09T12:23:36;99475.31;;;17.86;74.96
46009;BME280;39597;51.438;7.006;2022-09-09T12:31:59;99479.25;;;17.85;73.03
46009;BME280;39597;51.438;7.006;2022-09-09T12:37:03;99476.06;;;17.93;72.51
46009;BME280;39597;51.438;7.006;2022-09-09T12:39:38;99483.19;;;17.84;69.67
46009;BME280;39597;51.438;7.006;2022-09-09T12:42:15;99476.84;;;17.90;71.11
46009;BME280;39597;51.438;7.006;2022-09-09T12:44:50;99474.78;;;18.19;71.20
46009;BME280;39597;51.438;7.006;2022-09-09T12:47:19;99470.94;;;17.99;71.20
46009;BME280;39597;51.438;7.006;2022-09-09T12:49:48;99468.09;;;18.13;71.17
46009;BME280;39597;51.438;7.006;2022-09-09T12:52:25;99456.88;;;18.45;69.95
46009;BME280;39597;51.438;7.006;2022-09-09T12:54:56;99454.47;;;18.54;68.53
46009;BME280;39597;51.438;7.006;2022-09-09T12:57:23;99458.03;;;18.55;69.32
46009;BME280;39597;51.438;7.006;2022-09-09T12:59:50;99463.59;;;18.48;70.29
46009;BME280;39597;51.438;7.006;2022-09-09T13:02:25;99462.50;;;18.27;70.46
46009;BME280;39597;51.438;7.006;2022-09-09T13:04:53;99453.16;;;18.11;70.57
46009;BME280;39597;51.438;7.006;2022-09-09T13:07:20;99454.66;;;18.22;69.77
46009;BME280;39597;51.438;7.006;2022-09-09T13:09:49;99450.84;;;17.95;70.58
46009;BME280;39597;51.438;7.006;2022-09-09T13:12:21;99448.09;;;17.95;71.40
46009;BME280;39597;51.438;7.006;2022-09-09T13:14:55;99455.63;;;17.80;73.41
46009;BME280;39597;51.438;7.006;2022-09-09T13:17:23;99460.72;;;17.89;73.98
46009;BME280;39597;51.438;7.006;2022-09-09T13:19:51;99470.97;;;17.88;73.83
46009;BME280;39597;51.438;7.006;2022-09-09T13:22:35;99467.47;;;17.66;74.74
46009;BME280;39597;51.438;7.006;2022-09-09T13:25:13;99474.19;;;17.44;76.50
46009;BME280;39597;51.438;7.006;2022-09-09T13:27:52;99465.97;;;17.33;77.47
46009;BME280;39597;51.438;7.006;2022-09-09T13:36:00;99467.16;;;17.36;78.78
46009;BME280;39597;51.438;7.006;2022-09-09T13:38:28;99459.69;;;17.19;78.71
46009;BME280;39597;51.438;7.006;2022-09-09T13:41:05;99460.47;;;17.30;78.64
46009;BME280;39597;51.438;7.006;2022-09-09T13:43:51;99468.34;;;17.17;78.21
46009;BME280;39597;51.438;7.006;2022-09-09T13:48:58;99483.66;;;16.90;79.68
46009;BME280;39597;51.438;7.006;2022-09-09T13:51:45;99475.03;;;16.91;79.32
46009;BME280;39597;51.438;7.006;2022-09-09T13:54:14;99467.56;;;16.88;79.72
46009;BME280;39597;51.438;7.006;2022-09-09T13:56:41;99470.31;;;17.17;79.17
46009;BME280;39597;51.438;7.006;2022-09-09T13:59:16;99469.50;;;17.34;78.66
46009;BME280;39597;51.438;7.006;2022-09-09T14:01:45;99475.38;;;17.50;78.13
46009;BME280;39597;51.438;7.006;2022-09-09T14:04:11;99462.59;;;18.10;76.28
46009;BME280;39597;51.438;7.006;2022-09-09T14:06:37;99450.66;;;18.38;74.88
46009;BME280;39597;51.438;7.006;2022-09-09T14:09:11;99443.69;;;18.15;75.88
46009;BME280;39597;51.438;7.006;2022-09-09T14:11:38;99442.06;;;18.25;75.57
46009;BME280;39597;51.438;7.006;2022-09-09T14:14:03;99439.69;;;18.27;76.29
46009;BME280;39597;51.438;7.006;2022-09-09T14:16:29;99432.56;;;18.29;75.20
46009;BME280;39597;51.438;7.006;2022-09-09T14:18:54;99434.25;;;18.09;75.35
46009;BME280;39597;51.438;7.006;2022-09-09T14:21:21;99438.34;;;17.80;77.04
46009;BME280;39597;51.438;7.006;2022-09-09T14:23:47;99432.06;;;17.83;76.57
46009;BME280;39597;51.438;7.006;2022-09-09T14:26:13;99446.59;;;17.76;77.81
46009;BME280;39597;51.438;7.006;2022-09-09T14:28:39;99453.00;;;17.34;80.48
46009;BME280;39597;51.438;7.006;2022-09-09T14:31:08;99439.28;;;17.16;82.73
46009;BME280;39597;51.438;7.006;2022-09-09T14:33:36;99446.34;;;17.21;85.28
46009;BME280;39597;51.438;7.006;2022-09-09T14:36:03;99447.94;;;16.97;85.78
46009;BME280;39597;51.438;7.006;2022-09-09T14:38:31;99452.63;;;16.68;88.50
46009;BME280;39597;51.438;7.006;2022-09-09T14:40:58;99448.28;;;16.56;89.11
46009;BME280;39597;51.438;7.006;2022-09-09T14:43:24;99441.97;;;16.63;89.71
46009;BME280;39597;51.438;7.006;2022-09-09T14:45:49;99446.38;;;16.81;89.37
46009;BME280;39597;51.438;7.006;2022-09-09T14:48:16;99438.50;;;16.87;89.23
46009;BME280;39597;51.438;7.006;2022-09-09T14:50:41;99430.66;;;16.89;87.84
46009;BME280;39597;51.438;7.006;2022-09-09T14:53:08;99426.31;;;16.88;85.86
46009;BME280;39597;51.438;7.006;2022-09-09T14:55:34;99439.28;;;16.98;86.14
46009;BME280;39597;51.438;7.006;2022-09-09T14:58:00;99467.16;;;16.93;88.09
46009;BME280;39597;51.438;7.006;2022-09-09T15:00:25;99482.28;;;16.09;90.30
46009;BME280;39597;51.438;7.006;2022-09-09T15:02:54;99483.66;;;15.63;94.05
46009;BME280;39597;51.438;7.006;2022-09-09T15:05:23;99494.44;;;15.35;95.20
46009;BME280;39597;51.438;7.006;2022-09-09T15:07:52;99497.28;;;14.98;94.46
46009;BME280;39597;51.438;7.006;2022-09-09T15:10:17;99486.97;;;14.81;96.35
46009;BME280;39597;51.438;7.006;2022-09-09T15:12:44;99485.25;;;14.65;95.64
46009;BME280;39597;51.438;7.006;2022-09-09T15:15:10;99483.94;;;14.52;96.63
46009;BME280;39597;51.438;7.006;2022-09-09T15:17:38;99485.75;;;14.41;97.50
46009;BME280;39597;51.438;7.006;2022-09-09T15:20:04;99477.47;;;14.34;97.30